Strait of Georgia - north of Nanaimo: Past 24 Hour Conditions

 

Halibut Bank - 46146

02:00 AM PST 22 December 2014Buoy position: 49.34N 123.72W
Disclaimer

This table is a summary of hourly weather conditions for the past 24 hours.
Please note that these observations might not always be representative of weather conditions over their associated marine area.

Date / Time
(PST)
Wind(knots) Wave height(m) Wave period(s) Pressure(kPa) Air tempC) Water tempC)
22 December 2014
2:00 WNW 14 gust 16 0.2 3.0 102.1 8 7
1:00 WNW 10 gust 12 0.2 3.0 102.0 8 7
0:00 NW 10 gust 12 0.2 2.0 101.9 8 7
21 December 2014
23:00 WNW 12 gust 14 0.1 6.0 101.9 9 7
22:00 W 4 gust 4 0.1 2.0 101.8 9 7
21:00 NNE 2 gust 2 0.1 6.0 101.7 8 7
20:00 E 6 gust 6 0.1 2.0 101.6 8 7
19:00 ESE 8 gust 10 0.1 4.0 101.5 9 7
18:00 SE 8 gust 12 0.1 2.0 101.5 9 7
17:00 ESE 8 gust 8 0.1 6.0 101.5 8 7
16:00 ESE 8 gust 8 0.1 6.0 101.4 8 7
15:00 E 8 gust 8 0.1 2.0 101.4 8 7
14:00 E 6 gust 8 0.1 5.0 101.3 8 7
13:00 ESE 6 gust 8 0.1 6.0 101.3 8 8
12:00 ESE 6 gust 8 0.1 6.0 101.2 8 8
11:00 E 4 gust 4 0.1 3.0 101.2 8 8
10:00 SSE 4 gust 4 0.1 3.0 101.1 9 8
9:00 S 4 gust 4 0.1 3.0 101.0 8 8
8:00 S 2 gust 4 0.1 7.0 100.9 8 8
7:00 WSW 4 gust 4 0.2 4.0 100.8 9 8
6:00 WSW 4 gust 6 0.2 4.0 100.6 8 8
5:00 W 4 gust 6 0.2 3.0 100.5 9 8
4:00 SW 8 gust 8 0.3 3.0 100.4 9 8
3:00 W 6 gust 8 0.4 3.0 100.3 9 8
2:00 W 10 gust 12 0.3 3.0 100.2 9 8
Map of Pacific - Georgia Basin marine weather areas Tsawwassen Ferry Terminal Sentry Shoal - 46131 Halibut Bank - 46146 La Perouse Bank - 46206 Discovery Island Esquimalt Harbour Kelp Reefs Malahat Race Rocks Lightstation Saturna Island Sheringham Point University of Victoria Victoria Gonzales Victoria Int'l Airport Ballenas Islands Campbell River Airport Comox Airport Entrance Island Fanny Island Nanaimo Airport Sisters Islets Estevan Point Tofino Airport Grief Point Powell River Airport Sechelt Point Atkinson Sand Heads Lightstation Vancouver Harbour Vancouver Int'l Airport West Vancouver Port Alberni Howe Sound - Pam Rocks Squamish Airport
Legend:
buoy Buoy
land station Land Station

Pacific - Georgia Basin Area

Another Region

What we are doing

Date modified: